sensor_id;sensor_type;location;lat;lon;timestamp;temperature;humidity
13409;DHT22;6775;49.574;11.170;2023-12-22T00:00:17;4.90;99.90
13409;DHT22;6775;49.574;11.170;2023-12-22T00:02:46;4.90;99.90
13409;DHT22;6775;49.574;11.170;2023-12-22T00:05:14;4.90;99.90
13409;DHT22;6775;49.574;11.170;2023-12-22T00:07:42;4.90;99.90
13409;DHT22;6775;49.574;11.170;2023-12-22T00:10:10;4.90;99.90
13409;DHT22;6775;49.574;11.170;2023-12-22T00:12:40;4.90;99.90
13409;DHT22;6775;49.574;11.170;2023-12-22T00:15:08;5.00;99.90
13409;DHT22;6775;49.574;11.170;2023-12-22T00:17:37;5.00;99.90
13409;DHT22;6775;49.574;11.170;2023-12-22T00:20:06;5.00;99.90
13409;DHT22;6775;49.574;11.170;2023-12-22T00:22:37;5.00;99.90
13409;DHT22;6775;49.574;11.170;2023-12-22T00:25:06;5.00;99.90
13409;DHT22;6775;49.574;11.170;2023-12-22T00:27:36;5.00;99.90
13409;DHT22;6775;49.574;11.170;2023-12-22T00:30:07;5.00;99.90
13409;DHT22;6775;49.574;11.170;2023-12-22T00:32:36;5.00;99.90
13409;DHT22;6775;49.574;11.170;2023-12-22T00:35:05;5.00;99.90
13409;DHT22;6775;49.574;11.170;2023-12-22T00:37:33;5.00;99.90
13409;DHT22;6775;49.574;11.170;2023-12-22T00:40:02;5.00;99.90
13409;DHT22;6775;49.574;11.170;2023-12-22T00:42:31;5.00;99.90
13409;DHT22;6775;49.574;11.170;2023-12-22T00:44:59;4.90;99.90
13409;DHT22;6775;49.574;11.170;2023-12-22T00:47:29;4.90;99.90
13409;DHT22;6775;49.574;11.170;2023-12-22T00:49:57;4.90;99.90
13409;DHT22;6775;49.574;11.170;2023-12-22T00:52:25;4.90;99.90
13409;DHT22;6775;49.574;11.170;2023-12-22T00:54:54;4.90;99.90
13409;DHT22;6775;49.574;11.170;2023-12-22T00:57:22;4.90;99.90
13409;DHT22;6775;49.574;11.170;2023-12-22T00:59:50;4.90;99.90
13409;DHT22;6775;49.574;11.170;2023-12-22T01:02:19;4.90;99.90
13409;DHT22;6775;49.574;11.170;2023-12-22T01:04:49;4.80;99.90
13409;DHT22;6775;49.574;11.170;2023-12-22T01:07:17;4.80;99.90
13409;DHT22;6775;49.574;11.170;2023-12-22T01:09:46;4.80;99.90
13409;DHT22;6775;49.574;11.170;2023-12-22T01:12:14;4.80;99.90
13409;DHT22;6775;49.574;11.170;2023-12-22T01:14:42;4.80;99.90
13409;DHT22;6775;49.574;11.170;2023-12-22T01:17:11;4.80;99.90
13409;DHT22;6775;49.574;11.170;2023-12-22T01:19:40;4.80;99.90
13409;DHT22;6775;49.574;11.170;2023-12-22T01:22:09;4.80;99.90
13409;DHT22;6775;49.574;11.170;2023-12-22T01:24:37;4.80;99.90
13409;DHT22;6775;49.574;11.170;2023-12-22T01:27:09;4.80;99.90
13409;DHT22;6775;49.574;11.170;2023-12-22T01:29:37;4.80;99.90
13409;DHT22;6775;49.574;11.170;2023-12-22T01:32:06;4.80;99.90
13409;DHT22;6775;49.574;11.170;2023-12-22T01:34:34;4.80;99.90
13409;DHT22;6775;49.574;11.170;2023-12-22T01:37:03;4.80;99.90
13409;DHT22;6775;49.574;11.170;2023-12-22T01:39:32;4.80;99.90
13409;DHT22;6775;49.574;11.170;2023-12-22T01:42:00;4.80;99.90
13409;DHT22;6775;49.574;11.170;2023-12-22T01:44:28;4.80;99.90
13409;DHT22;6775;49.574;11.170;2023-12-22T01:46:56;4.80;99.90
13409;DHT22;6775;49.574;11.170;2023-12-22T01:49:25;4.80;99.90
13409;DHT22;6775;49.574;11.170;2023-12-22T01:51:56;4.80;99.90
13409;DHT22;6775;49.574;11.170;2023-12-22T01:54:25;4.80;99.90
13409;DHT22;6775;49.574;11.170;2023-12-22T01:56:55;4.80;99.90
13409;DHT22;6775;49.574;11.170;2023-12-22T01:59:24;4.90;99.90
13409;DHT22;6775;49.574;11.170;2023-12-22T02:01:53;4.90;99.90
13409;DHT22;6775;49.574;11.170;2023-12-22T02:04:22;4.90;99.90
13409;DHT22;6775;49.574;11.170;2023-12-22T02:06:52;4.80;99.90
13409;DHT22;6775;49.574;11.170;2023-12-22T02:09:21;4.90;99.90
13409;DHT22;6775;49.574;11.170;2023-12-22T02:11:49;4.90;99.90
13409;DHT22;6775;49.574;11.170;2023-12-22T02:14:18;4.90;99.90
13409;DHT22;6775;49.574;11.170;2023-12-22T02:16:51;4.80;99.90
13409;DHT22;6775;49.574;11.170;2023-12-22T02:19:41;4.90;99.90
13409;DHT22;6775;49.574;11.170;2023-12-22T02:22:12;4.80;99.90
13409;DHT22;6775;49.574;11.170;2023-12-22T02:24:42;4.90;99.90
13409;DHT22;6775;49.574;11.170;2023-12-22T02:27:23;4.90;99.90
13409;DHT22;6775;49.574;11.170;2023-12-22T02:30:03;4.80;99.90
13409;DHT22;6775;49.574;11.170;2023-12-22T02:32:38;4.80;99.90
13409;DHT22;6775;49.574;11.170;2023-12-22T02:35:11;4.90;99.90
13409;DHT22;6775;49.574;11.170;2023-12-22T02:37:45;4.80;99.90
13409;DHT22;6775;49.574;11.170;2023-12-22T02:40:16;4.90;99.90
13409;DHT22;6775;49.574;11.170;2023-12-22T02:42:46;4.90;99.90
13409;DHT22;6775;49.574;11.170;2023-12-22T02:45:16;4.80;99.90
13409;DHT22;6775;49.574;11.170;2023-12-22T02:47:46;4.90;99.90
13409;DHT22;6775;49.574;11.170;2023-12-22T02:50:16;4.90;99.90
13409;DHT22;6775;49.574;11.170;2023-12-22T02:52:44;4.90;99.90
13409;DHT22;6775;49.574;11.170;2023-12-22T02:55:13;4.90;99.90
13409;DHT22;6775;49.574;11.170;2023-12-22T02:57:42;4.90;99.90
13409;DHT22;6775;49.574;11.170;2023-12-22T03:00:11;4.90;99.90
13409;DHT22;6775;49.574;11.170;2023-12-22T03:02:40;4.90;99.90
13409;DHT22;6775;49.574;11.170;2023-12-22T03:05:08;4.90;99.90
13409;DHT22;6775;49.574;11.170;2023-12-22T03:07:36;4.90;99.90
13409;DHT22;6775;49.574;11.170;2023-12-22T03:10:05;4.90;99.90
13409;DHT22;6775;49.574;11.170;2023-12-22T03:12:34;4.90;99.90
13409;DHT22;6775;49.574;11.170;2023-12-22T03:15:04;4.90;99.90
13409;DHT22;6775;49.574;11.170;2023-12-22T03:17:33;4.80;99.90
13409;DHT22;6775;49.574;11.170;2023-12-22T03:20:02;4.80;99.90
13409;DHT22;6775;49.574;11.170;2023-12-22T03:22:30;4.80;99.90
13409;DHT22;6775;49.574;11.170;2023-12-22T03:24:58;4.80;99.90
13409;DHT22;6775;49.574;11.170;2023-12-22T03:27:26;4.80;99.90
13409;DHT22;6775;49.574;11.170;2023-12-22T03:29:55;4.80;99.90
13409;DHT22;6775;49.574;11.170;2023-12-22T03:32:23;4.80;99.90
13409;DHT22;6775;49.574;11.170;2023-12-22T03:34:51;4.80;99.90
13409;DHT22;6775;49.574;11.170;2023-12-22T03:37:20;4.80;99.90
13409;DHT22;6775;49.574;11.170;2023-12-22T03:39:48;4.80;99.90
13409;DHT22;6775;49.574;11.170;2023-12-22T03:42:16;4.80;99.90
13409;DHT22;6775;49.574;11.170;2023-12-22T03:44:44;4.70;99.90
13409;DHT22;6775;49.574;11.170;2023-12-22T03:47:12;4.70;99.90
13409;DHT22;6775;49.574;11.170;2023-12-22T03:49:43;4.70;99.90
13409;DHT22;6775;49.574;11.170;2023-12-22T03:52:11;4.70;99.90
13409;DHT22;6775;49.574;11.170;2023-12-22T03:54:41;4.80;99.90
13409;DHT22;6775;49.574;11.170;2023-12-22T03:57:09;4.70;99.90
13409;DHT22;6775;49.574;11.170;2023-12-22T03:59:37;4.70;99.90
13409;DHT22;6775;49.574;11.170;2023-12-22T04:02:05;4.70;99.90
13409;DHT22;6775;49.574;11.170;2023-12-22T04:04:37;4.70;99.90
13409;DHT22;6775;49.574;11.170;2023-12-22T04:07:07;4.70;99.90
13409;DHT22;6775;49.574;11.170;2023-12-22T04:09:37;4.70;99.90
13409;DHT22;6775;49.574;11.170;2023-12-22T04:12:06;4.70;99.90
13409;DHT22;6775;49.574;11.170;2023-12-22T04:14:34;4.70;99.90
13409;DHT22;6775;49.574;11.170;2023-12-22T04:17:02;4.70;99.90
13409;DHT22;6775;49.574;11.170;2023-12-22T04:19:31;4.70;99.90
13409;DHT22;6775;49.574;11.170;2023-12-22T04:21:59;4.70;99.90
13409;DHT22;6775;49.574;11.170;2023-12-22T04:24:28;4.70;99.90
13409;DHT22;6775;49.574;11.170;2023-12-22T04:26:57;4.70;99.90
13409;DHT22;6775;49.574;11.170;2023-12-22T04:29:25;4.60;99.90
13409;DHT22;6775;49.574;11.170;2023-12-22T04:31:53;4.60;99.90
13409;DHT22;6775;49.574;11.170;2023-12-22T04:34:21;4.60;99.90
13409;DHT22;6775;49.574;11.170;2023-12-22T04:36:49;4.60;99.90
13409;DHT22;6775;49.574;11.170;2023-12-22T04:39:17;4.60;99.90
13409;DHT22;6775;49.574;11.170;2023-12-22T04:41:48;4.60;99.90
13409;DHT22;6775;49.574;11.170;2023-12-22T04:44:16;4.60;99.90
13409;DHT22;6775;49.574;11.170;2023-12-22T04:46:44;4.60;99.90
13409;DHT22;6775;49.574;11.170;2023-12-22T04:49:13;4.50;99.90
13409;DHT22;6775;49.574;11.170;2023-12-22T04:51:42;4.60;99.90
13409;DHT22;6775;49.574;11.170;2023-12-22T04:54:10;4.50;99.90
13409;DHT22;6775;49.574;11.170;2023-12-22T04:56:38;4.50;99.90
13409;DHT22;6775;49.574;11.170;2023-12-22T04:59:08;4.60;99.90
13409;DHT22;6775;49.574;11.170;2023-12-22T05:01:36;4.50;99.90
13409;DHT22;6775;49.574;11.170;2023-12-22T05:04:04;4.50;99.90
13409;DHT22;6775;49.574;11.170;2023-12-22T05:06:35;4.50;99.90
13409;DHT22;6775;49.574;11.170;2023-12-22T05:09:03;4.50;99.90
13409;DHT22;6775;49.574;11.170;2023-12-22T05:11:31;4.50;99.90
13409;DHT22;6775;49.574;11.170;2023-12-22T05:14:00;4.50;99.90
13409;DHT22;6775;49.574;11.170;2023-12-22T05:16:29;4.50;99.90
13409;DHT22;6775;49.574;11.170;2023-12-22T05:18:58;4.40;99.90
13409;DHT22;6775;49.574;11.170;2023-12-22T05:21:26;4.40;99.90
13409;DHT22;6775;49.574;11.170;2023-12-22T05:23:55;4.40;99.90
13409;DHT22;6775;49.574;11.170;2023-12-22T05:26:23;4.40;99.90
13409;DHT22;6775;49.574;11.170;2023-12-22T05:28:51;4.30;99.90
13409;DHT22;6775;49.574;11.170;2023-12-22T05:31:20;4.40;99.90
13409;DHT22;6775;49.574;11.170;2023-12-22T05:33:49;4.30;99.90
13409;DHT22;6775;49.574;11.170;2023-12-22T05:36:17;4.40;99.90
13409;DHT22;6775;49.574;11.170;2023-12-22T05:38:45;4.40;99.90
13409;DHT22;6775;49.574;11.170;2023-12-22T05:41:14;4.40;99.90
13409;DHT22;6775;49.574;11.170;2023-12-22T05:43:42;4.40;99.90
13409;DHT22;6775;49.574;11.170;2023-12-22T05:46:10;4.40;99.90
13409;DHT22;6775;49.574;11.170;2023-12-22T05:48:39;4.50;99.90
13409;DHT22;6775;49.574;11.170;2023-12-22T05:51:08;4.50;99.90
13409;DHT22;6775;49.574;11.170;2023-12-22T05:53:40;4.50;99.90
13409;DHT22;6775;49.574;11.170;2023-12-22T05:56:17;4.50;99.90
13409;DHT22;6775;49.574;11.170;2023-12-22T05:58:47;4.40;99.90
13409;DHT22;6775;49.574;11.170;2023-12-22T06:01:16;4.50;99.90
13409;DHT22;6775;49.574;11.170;2023-12-22T06:03:46;4.40;99.90
13409;DHT22;6775;49.574;11.170;2023-12-22T06:06:16;4.50;99.90
13409;DHT22;6775;49.574;11.170;2023-12-22T06:08:45;4.40;99.90
13409;DHT22;6775;49.574;11.170;2023-12-22T06:11:13;4.40;99.90
13409;DHT22;6775;49.574;11.170;2023-12-22T06:13:42;4.40;99.90
13409;DHT22;6775;49.574;11.170;2023-12-22T06:16:13;4.40;99.90
13409;DHT22;6775;49.574;11.170;2023-12-22T06:18:42;4.30;99.90
13409;DHT22;6775;49.574;11.170;2023-12-22T06:21:10;4.30;99.90
13409;DHT22;6775;49.574;11.170;2023-12-22T06:23:40;4.30;99.90
13409;DHT22;6775;49.574;11.170;2023-12-22T06:26:09;4.20;99.90
13409;DHT22;6775;49.574;11.170;2023-12-22T06:28:38;4.20;99.90
13409;DHT22;6775;49.574;11.170;2023-12-22T06:31:17;4.10;99.90
13409;DHT22;6775;49.574;11.170;2023-12-22T06:33:47;4.10;99.90
13409;DHT22;6775;49.574;11.170;2023-12-22T06:36:19;4.20;99.90
13409;DHT22;6775;49.574;11.170;2023-12-22T06:38:50;4.20;99.90
13409;DHT22;6775;49.574;11.170;2023-12-22T06:41:20;4.20;99.90
13409;DHT22;6775;49.574;11.170;2023-12-22T06:43:54;4.20;99.90
13409;DHT22;6775;49.574;11.170;2023-12-22T06:46:24;4.20;99.90
13409;DHT22;6775;49.574;11.170;2023-12-22T06:48:54;4.30;99.90
13409;DHT22;6775;49.574;11.170;2023-12-22T06:51:24;4.30;99.90
13409;DHT22;6775;49.574;11.170;2023-12-22T06:53:55;4.30;99.90
13409;DHT22;6775;49.574;11.170;2023-12-22T06:56:24;4.30;99.90
13409;DHT22;6775;49.574;11.170;2023-12-22T06:58:55;4.30;99.90
13409;DHT22;6775;49.574;11.170;2023-12-22T07:01:26;4.30;99.90
13409;DHT22;6775;49.574;11.170;2023-12-22T07:03:55;4.30;99.90
13409;DHT22;6775;49.574;11.170;2023-12-22T07:06:24;4.30;99.90
13409;DHT22;6775;49.574;11.170;2023-12-22T07:09:29;4.30;99.90
13409;DHT22;6775;49.574;11.170;2023-12-22T07:11:59;4.30;99.90
13409;DHT22;6775;49.574;11.170;2023-12-22T07:14:28;4.30;99.90
13409;DHT22;6775;49.574;11.170;2023-12-22T07:16:56;4.20;99.90
13409;DHT22;6775;49.574;11.170;2023-12-22T07:19:27;4.20;99.90
13409;DHT22;6775;49.574;11.170;2023-12-22T07:21:55;4.20;99.90
13409;DHT22;6775;49.574;11.170;2023-12-22T07:24:23;4.20;99.90
13409;DHT22;6775;49.574;11.170;2023-12-22T07:26:52;4.10;99.90
13409;DHT22;6775;49.574;11.170;2023-12-22T07:29:21;4.20;99.90
13409;DHT22;6775;49.574;11.170;2023-12-22T07:31:51;4.20;99.90
13409;DHT22;6775;49.574;11.170;2023-12-22T07:34:19;4.20;99.90
13409;DHT22;6775;49.574;11.170;2023-12-22T07:36:49;4.20;99.90
13409;DHT22;6775;49.574;11.170;2023-12-22T07:39:32;4.20;99.90
13409;DHT22;6775;49.574;11.170;2023-12-22T07:42:03;4.20;99.90
13409;DHT22;6775;49.574;11.170;2023-12-22T07:44:33;4.20;99.90
13409;DHT22;6775;49.574;11.170;2023-12-22T07:47:01;4.20;99.90
13409;DHT22;6775;49.574;11.170;2023-12-22T07:49:30;4.20;99.90
13409;DHT22;6775;49.574;11.170;2023-12-22T07:51:59;4.20;99.90
13409;DHT22;6775;49.574;11.170;2023-12-22T07:54:29;4.20;99.90
13409;DHT22;6775;49.574;11.170;2023-12-22T07:56:58;4.30;99.90
13409;DHT22;6775;49.574;11.170;2023-12-22T07:59:27;4.30;99.90
13409;DHT22;6775;49.574;11.170;2023-12-22T08:01:58;4.40;99.90
13409;DHT22;6775;49.574;11.170;2023-12-22T08:04:27;4.40;99.90
13409;DHT22;6775;49.574;11.170;2023-12-22T08:06:55;4.40;99.90
13409;DHT22;6775;49.574;11.170;2023-12-22T08:09:23;4.40;99.90
13409;DHT22;6775;49.574;11.170;2023-12-22T08:11:52;4.50;99.90
13409;DHT22;6775;49.574;11.170;2023-12-22T08:14:20;4.60;99.90
13409;DHT22;6775;49.574;11.170;2023-12-22T08:16:50;4.60;99.90
13409;DHT22;6775;49.574;11.170;2023-12-22T08:19:19;4.70;99.90
13409;DHT22;6775;49.574;11.170;2023-12-22T08:21:48;4.70;99.90
13409;DHT22;6775;49.574;11.170;2023-12-22T08:24:18;4.70;99.90
13409;DHT22;6775;49.574;11.170;2023-12-22T08:26:49;4.80;99.90
13409;DHT22;6775;49.574;11.170;2023-12-22T08:29:18;4.80;99.90
13409;DHT22;6775;49.574;11.170;2023-12-22T08:31:47;4.90;99.90
13409;DHT22;6775;49.574;11.170;2023-12-22T08:34:16;4.90;99.90
13409;DHT22;6775;49.574;11.170;2023-12-22T08:36:45;5.00;99.90
13409;DHT22;6775;49.574;11.170;2023-12-22T08:39:13;5.00;99.90
13409;DHT22;6775;49.574;11.170;2023-12-22T08:41:42;5.10;99.90
13409;DHT22;6775;49.574;11.170;2023-12-22T08:44:10;5.20;99.90
13409;DHT22;6775;49.574;11.170;2023-12-22T08:46:41;5.20;99.90
13409;DHT22;6775;49.574;11.170;2023-12-22T08:49:10;5.20;99.90
13409;DHT22;6775;49.574;11.170;2023-12-22T08:51:40;5.30;99.90
13409;DHT22;6775;49.574;11.170;2023-12-22T08:54:08;5.30;99.90
13409;DHT22;6775;49.574;11.170;2023-12-22T08:56:36;5.30;99.90
13409;DHT22;6775;49.574;11.170;2023-12-22T08:59:04;5.30;99.90
13409;DHT22;6775;49.574;11.170;2023-12-22T09:01:35;5.30;99.90
13409;DHT22;6775;49.574;11.170;2023-12-22T09:04:03;5.20;99.90
13409;DHT22;6775;49.574;11.170;2023-12-22T09:06:34;5.20;99.90
13409;DHT22;6775;49.574;11.170;2023-12-22T09:09:03;5.20;99.90
13409;DHT22;6775;49.574;11.170;2023-12-22T09:11:32;5.20;99.90
13409;DHT22;6775;49.574;11.170;2023-12-22T09:14:01;5.20;99.90
13409;DHT22;6775;49.574;11.170;2023-12-22T09:16:29;5.20;99.90
13409;DHT22;6775;49.574;11.170;2023-12-22T09:18:57;5.20;99.90
13409;DHT22;6775;49.574;11.170;2023-12-22T09:21:25;5.10;99.90
13409;DHT22;6775;49.574;11.170;2023-12-22T09:23:53;5.10;99.90
13409;DHT22;6775;49.574;11.170;2023-12-22T09:26:23;5.20;99.90
13409;DHT22;6775;49.574;11.170;2023-12-22T09:28:55;5.20;99.90
13409;DHT22;6775;49.574;11.170;2023-12-22T09:31:23;5.20;99.90
13409;DHT22;6775;49.574;11.170;2023-12-22T09:33:51;5.20;99.90
13409;DHT22;6775;49.574;11.170;2023-12-22T09:36:20;5.20;99.90
13409;DHT22;6775;49.574;11.170;2023-12-22T09:38:48;5.20;99.90
13409;DHT22;6775;49.574;11.170;2023-12-22T09:41:16;5.20;99.90
13409;DHT22;6775;49.574;11.170;2023-12-22T09:43:49;5.30;99.90
13409;DHT22;6775;49.574;11.170;2023-12-22T09:46:20;5.30;99.90
13409;DHT22;6775;49.574;11.170;2023-12-22T09:48:51;5.30;99.90
13409;DHT22;6775;49.574;11.170;2023-12-22T09:51:21;5.40;99.90
13409;DHT22;6775;49.574;11.170;2023-12-22T09:53:50;5.30;99.90
13409;DHT22;6775;49.574;11.170;2023-12-22T09:56:22;5.30;99.90
13409;DHT22;6775;49.574;11.170;2023-12-22T09:58:53;5.40;99.90
13409;DHT22;6775;49.574;11.170;2023-12-22T10:01:24;5.40;99.90
13409;DHT22;6775;49.574;11.170;2023-12-22T10:03:53;5.40;99.90
13409;DHT22;6775;49.574;11.170;2023-12-22T10:06:22;5.40;99.90
13409;DHT22;6775;49.574;11.170;2023-12-22T10:08:50;5.30;99.90
13409;DHT22;6775;49.574;11.170;2023-12-22T10:11:20;5.30;99.90
13409;DHT22;6775;49.574;11.170;2023-12-22T10:13:54;5.30;99.90
13409;DHT22;6775;49.574;11.170;2023-12-22T10:16:23;5.20;99.90
13409;DHT22;6775;49.574;11.170;2023-12-22T10:18:51;5.20;99.90
13409;DHT22;6775;49.574;11.170;2023-12-22T10:21:20;5.20;99.90
13409;DHT22;6775;49.574;11.170;2023-12-22T10:23:49;5.10;99.90
13409;DHT22;6775;49.574;11.170;2023-12-22T10:26:17;5.10;99.90
13409;DHT22;6775;49.574;11.170;2023-12-22T10:28:47;5.20;99.90
13409;DHT22;6775;49.574;11.170;2023-12-22T10:31:17;5.20;99.90
13409;DHT22;6775;49.574;11.170;2023-12-22T10:33:45;5.20;99.90
13409;DHT22;6775;49.574;11.170;2023-12-22T10:36:13;5.20;99.90
13409;DHT22;6775;49.574;11.170;2023-12-22T10:38:42;5.30;99.90
13409;DHT22;6775;49.574;11.170;2023-12-22T10:41:11;5.30;99.90
13409;DHT22;6775;49.574;11.170;2023-12-22T10:43:40;5.30;99.90
13409;DHT22;6775;49.574;11.170;2023-12-22T10:46:09;5.30;99.90
13409;DHT22;6775;49.574;11.170;2023-12-22T10:48:40;5.30;99.90
13409;DHT22;6775;49.574;11.170;2023-12-22T10:51:09;5.30;99.90
13409;DHT22;6775;49.574;11.170;2023-12-22T10:53:40;5.30;99.90
13409;DHT22;6775;49.574;11.170;2023-12-22T10:56:10;5.40;99.90
13409;DHT22;6775;49.574;11.170;2023-12-22T10:58:39;5.40;99.90
13409;DHT22;6775;49.574;11.170;2023-12-22T11:01:08;5.40;99.90
13409;DHT22;6775;49.574;11.170;2023-12-22T11:03:43;5.40;99.90
13409;DHT22;6775;49.574;11.170;2023-12-22T11:06:12;5.40;99.90
13409;DHT22;6775;49.574;11.170;2023-12-22T11:08:43;5.40;99.90
13409;DHT22;6775;49.574;11.170;2023-12-22T11:11:20;5.40;99.90
13409;DHT22;6775;49.574;11.170;2023-12-22T11:13:56;5.50;99.90
13409;DHT22;6775;49.574;11.170;2023-12-22T11:16:25;5.40;99.90
13409;DHT22;6775;49.574;11.170;2023-12-22T11:18:57;5.40;99.90
13409;DHT22;6775;49.574;11.170;2023-12-22T11:21:27;5.30;99.90
13409;DHT22;6775;49.574;11.170;2023-12-22T11:23:56;5.40;99.90
13409;DHT22;6775;49.574;11.170;2023-12-22T11:26:25;5.40;99.90
13409;DHT22;6775;49.574;11.170;2023-12-22T11:28:53;5.40;99.90
13409;DHT22;6775;49.574;11.170;2023-12-22T11:31:23;5.40;99.90
13409;DHT22;6775;49.574;11.170;2023-12-22T11:33:57;5.40;99.90
13409;DHT22;6775;49.574;11.170;2023-12-22T11:36:38;5.40;99.90
13409;DHT22;6775;49.574;11.170;2023-12-22T11:39:07;5.40;99.90
13409;DHT22;6775;49.574;11.170;2023-12-22T11:41:36;5.50;99.90
13409;DHT22;6775;49.574;11.170;2023-12-22T11:44:07;5.50;99.90
13409;DHT22;6775;49.574;11.170;2023-12-22T11:46:37;5.50;99.90
13409;DHT22;6775;49.574;11.170;2023-12-22T11:49:06;5.60;99.90
13409;DHT22;6775;49.574;11.170;2023-12-22T11:51:35;5.60;99.90
13409;DHT22;6775;49.574;11.170;2023-12-22T11:54:03;5.60;99.90
13409;DHT22;6775;49.574;11.170;2023-12-22T11:56:31;5.60;99.90
13409;DHT22;6775;49.574;11.170;2023-12-22T11:59:03;5.60;99.90
13409;DHT22;6775;49.574;11.170;2023-12-22T12:01:38;5.60;99.90
13409;DHT22;6775;49.574;11.170;2023-12-22T12:04:08;5.70;99.90
13409;DHT22;6775;49.574;11.170;2023-12-22T12:06:36;5.60;99.90
13409;DHT22;6775;49.574;11.170;2023-12-22T12:09:06;5.70;99.90
13409;DHT22;6775;49.574;11.170;2023-12-22T12:12:11;5.70;99.90
13409;DHT22;6775;49.574;11.170;2023-12-22T12:14:42;5.70;99.90
13409;DHT22;6775;49.574;11.170;2023-12-22T12:17:15;5.80;99.90
13409;DHT22;6775;49.574;11.170;2023-12-22T12:19:48;5.80;99.90
13409;DHT22;6775;49.574;11.170;2023-12-22T12:22:17;5.80;99.90
13409;DHT22;6775;49.574;11.170;2023-12-22T12:24:51;5.80;99.90
13409;DHT22;6775;49.574;11.170;2023-12-22T12:27:20;5.80;99.90
13409;DHT22;6775;49.574;11.170;2023-12-22T12:29:48;5.90;99.90
13409;DHT22;6775;49.574;11.170;2023-12-22T12:32:18;5.90;99.90
13409;DHT22;6775;49.574;11.170;2023-12-22T12:34:52;5.90;99.90
13409;DHT22;6775;49.574;11.170;2023-12-22T12:37:23;5.90;99.90
13409;DHT22;6775;49.574;11.170;2023-12-22T12:39:55;5.90;99.90
13409;DHT22;6775;49.574;11.170;2023-12-22T12:42:29;5.90;99.90
13409;DHT22;6775;49.574;11.170;2023-12-22T12:44:57;6.00;99.90
13409;DHT22;6775;49.574;11.170;2023-12-22T12:47:26;6.00;99.90
13409;DHT22;6775;49.574;11.170;2023-12-22T12:49:59;6.00;99.90
13409;DHT22;6775;49.574;11.170;2023-12-22T12:52:28;6.00;99.90
13409;DHT22;6775;49.574;11.170;2023-12-22T12:54:58;6.10;99.90
13409;DHT22;6775;49.574;11.170;2023-12-22T12:57:27;6.10;99.90
13409;DHT22;6775;49.574;11.170;2023-12-22T12:59:56;6.10;99.90
13409;DHT22;6775;49.574;11.170;2023-12-22T13:02:24;6.10;99.90
13409;DHT22;6775;49.574;11.170;2023-12-22T13:04:54;6.20;99.90
13409;DHT22;6775;49.574;11.170;2023-12-22T13:07:26;6.20;99.90
13409;DHT22;6775;49.574;11.170;2023-12-22T13:09:54;6.20;99.90
13409;DHT22;6775;49.574;11.170;2023-12-22T13:12:24;6.20;99.90
13409;DHT22;6775;49.574;11.170;2023-12-22T13:14:52;6.30;99.90
13409;DHT22;6775;49.574;11.170;2023-12-22T13:17:20;6.30;99.90
13409;DHT22;6775;49.574;11.170;2023-12-22T13:19:49;6.40;99.90
13409;DHT22;6775;49.574;11.170;2023-12-22T13:22:18;6.40;99.90
13409;DHT22;6775;49.574;11.170;2023-12-22T13:24:56;6.40;99.90
13409;DHT22;6775;49.574;11.170;2023-12-22T13:27:24;6.40;99.90
13409;DHT22;6775;49.574;11.170;2023-12-22T13:29:53;6.50;99.90
13409;DHT22;6775;49.574;11.170;2023-12-22T13:32:22;6.50;99.90
13409;DHT22;6775;49.574;11.170;2023-12-22T13:34:52;6.50;99.90
13409;DHT22;6775;49.574;11.170;2023-12-22T13:37:22;6.50;99.90
13409;DHT22;6775;49.574;11.170;2023-12-22T13:39:53;6.60;99.90
13409;DHT22;6775;49.574;11.170;2023-12-22T13:42:22;6.60;99.90
13409;DHT22;6775;49.574;11.170;2023-12-22T13:44:51;6.60;99.90
13409;DHT22;6775;49.574;11.170;2023-12-22T13:47:19;6.60;99.90
13409;DHT22;6775;49.574;11.170;2023-12-22T13:49:48;6.60;99.90
13409;DHT22;6775;49.574;11.170;2023-12-22T13:52:29;6.60;99.90
13409;DHT22;6775;49.574;11.170;2023-12-22T13:55:01;6.70;99.90
13409;DHT22;6775;49.574;11.170;2023-12-22T13:57:31;6.60;99.90
13409;DHT22;6775;49.574;11.170;2023-12-22T13:59:59;6.70;99.90
13409;DHT22;6775;49.574;11.170;2023-12-22T14:02:27;6.70;99.90
13409;DHT22;6775;49.574;11.170;2023-12-22T14:04:56;6.70;99.90
13409;DHT22;6775;49.574;11.170;2023-12-22T14:07:24;6.70;99.90
13409;DHT22;6775;49.574;11.170;2023-12-22T14:09:53;6.70;99.90
13409;DHT22;6775;49.574;11.170;2023-12-22T14:12:21;6.80;99.90
13409;DHT22;6775;49.574;11.170;2023-12-22T14:14:59;6.80;99.90
13409;DHT22;6775;49.574;11.170;2023-12-22T14:17:27;6.80;99.90
13409;DHT22;6775;49.574;11.170;2023-12-22T14:19:58;6.80;99.90
13409;DHT22;6775;49.574;11.170;2023-12-22T14:22:26;6.80;99.90
13409;DHT22;6775;49.574;11.170;2023-12-22T14:24:55;6.90;99.90
13409;DHT22;6775;49.574;11.170;2023-12-22T14:27:23;6.90;99.90
13409;DHT22;6775;49.574;11.170;2023-12-22T14:29:51;6.90;99.90
13409;DHT22;6775;49.574;11.170;2023-12-22T14:32:21;6.90;99.90
13409;DHT22;6775;49.574;11.170;2023-12-22T14:34:49;6.90;99.90
13409;DHT22;6775;49.574;11.170;2023-12-22T14:37:16;6.90;99.90
13409;DHT22;6775;49.574;11.170;2023-12-22T14:39:45;6.90;99.90
13409;DHT22;6775;49.574;11.170;2023-12-22T14:42:13;6.90;99.90
13409;DHT22;6775;49.574;11.170;2023-12-22T14:44:41;6.90;99.90
13409;DHT22;6775;49.574;11.170;2023-12-22T14:47:10;6.90;99.90
13409;DHT22;6775;49.574;11.170;2023-12-22T14:49:41;6.90;99.90
13409;DHT22;6775;49.574;11.170;2023-12-22T14:52:10;6.90;99.90
13409;DHT22;6775;49.574;11.170;2023-12-22T14:54:38;6.90;99.90
13409;DHT22;6775;49.574;11.170;2023-12-22T14:57:06;6.90;99.90
13409;DHT22;6775;49.574;11.170;2023-12-22T14:59:34;7.00;99.90
13409;DHT22;6775;49.574;11.170;2023-12-22T15:02:02;7.00;99.90
13409;DHT22;6775;49.574;11.170;2023-12-22T15:04:32;7.00;99.90
13409;DHT22;6775;49.574;11.170;2023-12-22T15:07:02;7.10;99.90
13409;DHT22;6775;49.574;11.170;2023-12-22T15:09:30;7.10;99.90
13409;DHT22;6775;49.574;11.170;2023-12-22T15:11:58;7.10;99.90
13409;DHT22;6775;49.574;11.170;2023-12-22T15:14:27;7.20;99.90
13409;DHT22;6775;49.574;11.170;2023-12-22T15:16:55;7.20;99.90
13409;DHT22;6775;49.574;11.170;2023-12-22T15:19:23;7.10;99.90
13409;DHT22;6775;49.574;11.170;2023-12-22T15:21:51;7.20;99.90
13409;DHT22;6775;49.574;11.170;2023-12-22T15:24:22;7.20;99.90
13409;DHT22;6775;49.574;11.170;2023-12-22T15:26:50;7.20;99.90
13409;DHT22;6775;49.574;11.170;2023-12-22T15:29:19;7.20;99.90
13409;DHT22;6775;49.574;11.170;2023-12-22T15:31:47;7.20;99.90
13409;DHT22;6775;49.574;11.170;2023-12-22T15:34:16;7.10;99.90
13409;DHT22;6775;49.574;11.170;2023-12-22T15:36:44;7.20;99.90
13409;DHT22;6775;49.574;11.170;2023-12-22T15:39:13;7.20;99.90
13409;DHT22;6775;49.574;11.170;2023-12-22T15:41:42;7.20;99.90
13409;DHT22;6775;49.574;11.170;2023-12-22T15:44:10;7.20;99.90
13409;DHT22;6775;49.574;11.170;2023-12-22T15:46:39;7.20;99.90
13409;DHT22;6775;49.574;11.170;2023-12-22T15:49:07;7.30;99.90
13409;DHT22;6775;49.574;11.170;2023-12-22T15:51:36;7.20;99.90
13409;DHT22;6775;49.574;11.170;2023-12-22T15:54:04;7.30;99.90
13409;DHT22;6775;49.574;11.170;2023-12-22T15:56:33;7.30;99.90
13409;DHT22;6775;49.574;11.170;2023-12-22T15:59:02;7.30;99.90